Time;durP1;ratioP1;P1;durP2;ratioP2;P2;SDS_P1;SDS_P2;PMS_P1;PMS_P2;Temp;Humidity;BMP_temperature;BMP_pressure;BME280_temperature;BME280_humidity;BME280_pressure;Samples;Min_cycle;Max_cycle;Signal;HPM_P1;HPM_P2
2022/05/10 00:00:36;;;;;;;11.60;5.20;;;;;;;14.51;75.28;101979.50;5057311;28;20021;-87
2022/05/10 00:03:05;;;;;;;16.85;6.00;;;;;;;14.47;75.06;101986.75;5040019;28;20055;-88
2022/05/10 00:05:36;;;;;;;10.82;4.90;;;;;;;14.42;74.91;101978.09;5059430;28;20028;-89
2022/05/10 00:08:05;;;;;;;11.68;5.60;;;;;;;14.38;75.20;101973.81;5057030;28;20024;-88
2022/05/10 00:10:30;;;;;;;11.75;5.50;;;;;;;14.35;75.12;101963.31;5056618;28;20029;-88
2022/05/10 00:12:56;;;;;;;11.90;5.55;;;;;;;14.38;75.30;101969.34;5057132;28;20036;-88
2022/05/10 00:15:21;;;;;;;12.48;5.60;;;;;;;14.40;75.46;101962.16;5055317;28;20040;-89
2022/05/10 00:17:48;;;;;;;10.55;5.38;;;;;;;14.39;75.49;101965.75;5056315;28;20029;-89
2022/05/10 00:20:18;;;;;;;10.65;5.63;;;;;;;14.39;75.51;101956.91;5021498;28;20102;-89
2022/05/10 00:22:44;;;;;;;12.70;5.65;;;;;;;14.42;75.49;101962.09;5074914;28;20051;-89
2022/05/10 00:25:12;;;;;;;12.23;5.53;;;;;;;14.44;75.43;101957.59;5038923;28;20029;-89
2022/05/10 00:27:38;;;;;;;11.30;6.25;;;;;;;14.48;75.23;101958.31;5056561;28;20096;-89
2022/05/10 00:30:05;;;;;;;9.15;5.10;;;;;;;14.49;75.49;101958.25;5031978;28;20117;-89
2022/05/10 00:32:34;;;;;;;14.13;6.13;;;;;;;14.51;75.14;101953.69;5020469;28;20037;-89
2022/05/10 00:38:25;;;;;;;11.27;5.60;;;;;;;14.54;74.35;101950.03;5077964;22;20051;-62
2022/05/10 00:40:50;;;;;;;11.25;6.25;;;;;;;14.56;74.47;101942.84;5079112;22;20059;-62
2022/05/10 00:43:28;;;;;;;12.15;6.40;;;;;;;14.57;74.14;101939.25;5064760;28;20037;-61
2022/05/10 00:45:58;;;;;;;12.98;5.82;;;;;;;14.61;73.96;101942.66;5074012;28;20150;-61
2022/05/10 00:48:45;;;;;;;12.00;5.75;;;;;;;14.64;74.17;101931.84;5073856;28;20028;-62
2022/05/10 00:51:19;;;;;;;15.15;6.43;;;;;;;14.67;74.25;101939.75;5074642;28;20115;-62
2022/05/10 00:54:42;;;;;;;14.27;6.13;;;;;;;14.70;73.96;101937.78;5073464;28;20055;-62
2022/05/10 00:57:24;;;;;;;12.88;7.10;;;;;;;14.74;73.79;101927.84;5012016;28;20051;-60
2022/05/10 00:59:56;;;;;;;15.32;6.85;;;;;;;14.75;73.89;101921.59;5074692;28;20031;-61
2022/05/10 01:02:30;;;;;;;13.88;6.47;;;;;;;14.75;73.83;101929.59;5073147;28;20452;-62
2022/05/10 01:05:01;;;;;;;12.18;6.22;;;;;;;14.74;73.50;101912.75;5074593;28;20020;-61
2022/05/10 01:07:35;;;;;;;13.90;6.82;;;;;;;14.78;73.34;101924.13;5073623;28;20027;-61
2022/05/10 01:10:13;;;;;;;13.15;6.97;;;;;;;14.79;72.99;101906.34;5073547;28;20012;-61
2022/05/10 01:12:44;;;;;;;15.18;6.50;;;;;;;14.79;72.64;101901.00;5066134;28;20527;-61
2022/05/10 01:15:18;;;;;;;13.52;6.95;;;;;;;14.79;71.60;101907.19;5073941;28;20434;-61
2022/05/10 01:17:45;;;;;;;15.45;7.05;;;;;;;14.78;71.62;101897.44;5051987;28;20044;-61
2022/05/10 01:20:27;;;;;;;15.20;6.63;;;;;;;14.79;71.93;101898.34;5053094;28;20024;-61
2022/05/10 01:23:08;;;;;;;16.17;7.40;;;;;;;14.78;71.96;101894.78;5052931;28;20039;-61
2022/05/10 01:25:42;;;;;;;14.85;6.60;;;;;;;14.81;71.72;101886.66;5053458;28;20025;-62
2022/05/10 01:28:23;;;;;;;13.95;6.72;;;;;;;14.79;71.45;101885.84;5090705;28;20499;-62
2022/05/10 01:30:49;;;;;;;14.35;6.65;;;;;;;14.81;71.55;101885.78;5074221;28;20494;-62
2022/05/10 01:33:31;;;;;;;14.23;6.65;;;;;;;14.84;70.63;101878.50;5058818;28;20037;-62
2022/05/10 01:36:35;;;;;;;13.23;6.68;;;;;;;14.88;70.79;101877.41;5057019;28;20033;-62
2022/05/10 01:39:09;;;;;;;16.25;6.75;;;;;;;14.90;70.63;101864.91;5046965;28;20045;-61
2022/05/10 01:41:57;;;;;;;15.48;6.80;;;;;;;14.91;70.63;101858.63;5059167;28;20114;-61
2022/05/10 01:44:43;;;;;;;15.60;6.78;;;;;;;14.96;70.38;101874.44;5072237;28;20028;-62
2022/05/10 01:47:35;;;;;;;13.77;6.47;;;;;;;14.97;70.24;101852.13;5072531;28;20506;-62
2022/05/10 01:50:06;;;;;;;15.43;6.18;;;;;;;15.00;69.95;101852.00;5072598;28;20016;-62
2022/05/10 01:52:40;;;;;;;11.88;5.35;;;;;;;15.01;70.17;101843.06;5073698;28;20029;-62
2022/05/10 01:55:28;;;;;;;10.85;5.90;;;;;;;15.02;70.89;101835.91;5055307;28;20033;-62
2022/05/10 01:57:58;;;;;;;12.00;6.10;;;;;;;15.00;70.54;101828.00;5088137;28;20077;-62
2022/05/10 02:00:27;;;;;;;14.20;6.00;;;;;;;15.02;70.13;101836.75;5072256;28;20027;-62
2022/05/10 02:02:57;;;;;;;12.82;6.00;;;;;;;15.03;70.15;101830.50;5071958;28;20484;-62
2022/05/10 02:05:31;;;;;;;13.23;6.13;;;;;;;15.04;70.30;101842.91;5073135;28;20031;-63
2022/05/10 02:08:05;;;;;;;15.00;6.15;;;;;;;15.04;70.28;101826.91;5070138;28;20028;-61
2022/05/10 02:10:38;;;;;;;11.85;5.53;;;;;;;15.05;70.43;101825.09;5092420;28;20023;-61
2022/05/10 02:13:15;;;;;;;11.88;5.78;;;;;;;15.02;70.69;101828.75;5092051;28;20032;-62
2022/05/10 02:15:49;;;;;;;13.75;5.78;;;;;;;15.05;70.44;101820.63;5072586;28;20122;-61
2022/05/10 02:18:49;;;;;;;11.98;5.88;;;;;;;15.07;71.45;101823.22;5072491;28;20028;-61
2022/05/10 02:21:19;;;;;;;13.10;6.13;;;;;;;15.10;70.95;101822.22;5071702;28;20116;-62
2022/05/10 02:24:07;;;;;;;12.68;6.35;;;;;;;15.12;70.91;101818.53;5091962;28;20024;-61
2022/05/10 02:26:44;;;;;;;12.70;6.22;;;;;;;15.15;70.59;101813.03;5090446;28;20043;-61
2022/05/10 02:29:32;;;;;;;16.13;6.18;;;;;;;15.17;70.17;101797.81;5071722;28;20020;-61
2022/05/10 02:35:09;;;;;;;12.05;5.97;;;;;;;15.26;70.36;101803.66;5044069;28;20178;-62
2022/05/10 02:37:35;;;;;;;13.30;6.10;;;;;;;15.27;70.33;101800.03;5074054;28;20066;-62
2022/05/10 02:40:02;;;;;;;13.93;6.32;;;;;;;15.28;70.16;101799.09;5071446;28;20127;-62
2022/05/10 02:42:28;;;;;;;15.75;7.07;;;;;;;15.30;70.10;101795.41;5071890;28;20037;-62
2022/05/10 02:44:57;;;;;;;15.48;6.80;;;;;;;15.30;69.85;101798.09;5070893;28;20036;-62
2022/05/10 02:47:40;;;;;;;14.60;6.35;;;;;;;15.31;69.98;101790.97;5068431;28;20142;-62
2022/05/10 02:50:10;;;;;;;13.75;6.80;;;;;;;15.32;70.49;101790.00;5072695;28;20028;-62
2022/05/10 02:52:36;;;;;;;13.50;6.70;;;;;;;15.32;71.04;101787.31;5091469;28;20063;-62
2022/05/10 02:55:09;;;;;;;14.55;6.55;;;;;;;15.31;69.95;101789.13;5091822;28;20060;-62
2022/05/10 02:57:36;;;;;;;14.27;6.72;;;;;;;15.35;69.78;101787.19;5090105;28;20073;-62
2022/05/10 03:00:06;;;;;;;13.85;7.00;;;;;;;15.37;69.39;101786.19;5071974;28;20032;-62
2022/05/10 03:02:36;;;;;;;13.13;6.45;;;;;;;15.37;69.45;101783.50;5092062;28;20475;-62
2022/05/10 03:05:04;;;;;;;12.98;6.70;;;;;;;15.37;69.57;101779.94;5092314;28;20076;-62
2022/05/10 03:07:29;;;;;;;15.30;7.00;;;;;;;15.37;69.07;101770.16;5090105;28;20059;-62
2022/05/10 03:09:55;;;;;;;16.67;7.05;;;;;;;15.39;68.84;101764.75;5089672;28;20063;-62
2022/05/10 03:12:21;;;;;;;23.98;6.68;;;;;;;15.43;68.33;101765.44;5091668;28;20467;-63
2022/05/10 03:14:46;;;;;;;13.52;6.53;;;;;;;15.45;68.70;101774.22;5091398;28;20060;-63
2022/05/10 03:17:12;;;;;;;13.35;6.80;;;;;;;15.46;68.43;101766.16;5073693;28;20241;-62
2022/05/10 03:19:41;;;;;;;14.23;6.55;;;;;;;15.48;68.75;101766.09;5080819;28;20475;-62
2022/05/10 03:22:08;;;;;;;13.48;6.45;;;;;;;15.48;68.70;101755.41;5053312;28;20035;-62
2022/05/10 03:24:34;;;;;;;11.85;6.57;;;;;;;15.50;68.02;101770.41;5071162;28;20028;-62
2022/05/10 03:27:02;;;;;;;13.35;7.07;;;;;;;15.49;68.34;101754.47;5071595;28;20499;-62
2022/05/10 03:29:29;;;;;;;14.50;7.28;;;;;;;15.50;68.06;101750.84;5038787;28;20411;-61
2022/05/10 03:31:55;;;;;;;12.90;7.68;;;;;;;15.50;67.83;101761.50;5071360;28;20025;-59
2022/05/10 03:37:05;;;;;;;14.82;7.15;;;;;;;15.52;67.92;101756.97;5071555;28;20047;-61
2022/05/10 03:39:30;;;;;;;14.68;7.07;;;;;;;15.49;68.17;101752.66;5055388;28;20044;-62
2022/05/10 03:41:56;;;;;;;12.00;6.97;;;;;;;15.52;67.88;101755.16;5091395;28;20107;-62
2022/05/10 03:44:21;;;;;;;13.23;7.07;;;;;;;15.53;67.59;101740.88;5091187;28;20031;-62
2022/05/10 03:46:47;;;;;;;12.10;6.60;;;;;;;15.53;67.87;101743.53;5073264;28;20032;-62
2022/05/10 03:49:14;;;;;;;15.43;7.18;;;;;;;15.53;67.64;101742.69;5089368;28;20058;-62
2022/05/10 03:51:39;;;;;;;14.82;6.85;;;;;;;15.52;68.47;101740.94;5089832;28;20024;-62
2022/05/10 03:54:05;;;;;;;11.38;6.75;;;;;;;15.53;68.48;101737.34;5094658;28;20035;-62
2022/05/10 03:56:30;;;;;;;14.93;7.40;;;;;;;15.52;68.05;101735.63;5062136;28;20047;-61
2022/05/10 03:58:56;;;;;;;15.50;7.53;;;;;;;15.52;68.30;101738.28;5074496;28;20024;-61
2022/05/10 04:01:22;;;;;;;13.07;7.47;;;;;;;15.54;68.36;101733.75;5062071;28;20035;-61
2022/05/10 04:03:48;;;;;;;15.63;7.35;;;;;;;15.54;68.39;101728.41;5039729;28;20036;-61
2022/05/10 04:06:14;;;;;;;12.25;6.95;;;;;;;15.60;67.64;101733.44;5056442;28;20067;-61
2022/05/10 04:08:39;;;;;;;15.55;7.25;;;;;;;15.63;67.56;101725.25;5074388;28;20097;-61
2022/05/10 04:11:08;;;;;;;15.27;7.72;;;;;;;15.64;67.78;101720.75;5068514;28;20022;-62
2022/05/10 04:13:34;;;;;;;14.70;7.57;;;;;;;15.66;67.83;101722.41;5074208;28;20032;-62
2022/05/10 04:16:00;;;;;;;15.18;7.55;;;;;;;15.68;68.10;101717.84;5074175;28;20115;-62
2022/05/10 04:18:27;;;;;;;13.65;7.45;;;;;;;15.70;67.88;101713.31;5056085;28;20483;-60
2022/05/10 04:20:53;;;;;;;15.48;7.80;;;;;;;15.72;68.05;101715.91;5074942;28;20507;-61
2022/05/10 04:23:18;;;;;;;15.73;8.13;;;;;;;15.76;67.79;101712.13;5092763;28;20039;-61
2022/05/10 04:25:44;;;;;;;14.32;7.38;;;;;;;15.80;67.47;101718.16;5075954;28;20031;-62
2022/05/10 04:28:10;;;;;;;17.10;7.78;;;;;;;15.86;67.45;101712.53;5094372;28;20089;-61
2022/05/10 04:30:35;;;;;;;15.18;8.40;;;;;;;15.87;67.36;101711.59;5093928;28;20020;-62
2022/05/10 04:33:00;;;;;;;16.30;8.60;;;;;;;15.91;67.12;101714.94;5078897;28;20060;-62
2022/05/10 04:35:26;;;;;;;15.85;8.27;;;;;;;15.92;67.56;101722.00;5073547;28;20029;-62
2022/05/10 04:37:51;;;;;;;15.23;7.63;;;;;;;15.97;67.46;101709.28;5073864;28;20428;-62
2022/05/10 04:43:01;;;;;;;15.10;8.07;;;;;;;16.01;66.60;101701.03;5074974;28;20120;-62
2022/05/10 04:45:27;;;;;;;17.08;9.20;;;;;;;16.07;66.61;101717.66;5073430;28;20032;-62
2022/05/10 04:47:52;;;;;;;17.83;8.43;;;;;;;16.09;66.86;101705.94;5073643;28;20029;-63
2022/05/10 04:50:19;;;;;;;12.98;8.05;;;;;;;16.13;66.26;101701.31;5055332;28;20036;-62
2022/05/10 04:52:45;;;;;;;20.45;9.05;;;;;;;16.16;66.58;101703.78;5059738;28;20036;-62
2022/05/10 04:55:11;;;;;;;19.90;8.82;;;;;;;16.18;66.27;101697.41;5074824;28;20039;-63
2022/05/10 04:57:37;;;;;;;15.73;8.50;;;;;;;16.22;65.97;101698.13;5075536;28;20059;-63
2022/05/10 05:00:05;;;;;;;15.52;8.50;;;;;;;16.26;65.99;101701.50;5093048;28;20031;-63
2022/05/10 05:02:30;;;;;;;16.13;8.38;;;;;;;16.29;65.72;101696.84;5093243;28;20056;-63
2022/05/10 05:04:56;;;;;;;16.30;8.50;;;;;;;16.35;65.58;101703.66;5090506;28;20059;-63
2022/05/10 05:07:21;;;;;;;19.17;9.32;;;;;;;16.36;65.25;101694.69;5075188;28;20035;-61
2022/05/10 05:09:46;;;;;;;17.38;8.57;;;;;;;16.43;64.93;101697.88;5075102;28;20032;-61
2022/05/10 05:12:12;;;;;;;21.77;8.88;;;;;;;16.50;64.74;101696.59;5093118;28;20043;-61
2022/05/10 05:14:37;;;;;;;17.98;8.93;;;;;;;16.55;65.22;101697.19;5080892;28;20058;-62
2022/05/10 05:17:03;;;;;;;23.98;8.48;;;;;;;16.66;64.09;101715.28;5054508;28;20032;-61
2022/05/10 05:19:28;;;;;;;17.48;9.05;;;;;;;16.73;63.19;101699.75;5054536;28;20028;-62
2022/05/10 05:21:54;;;;;;;17.27;8.88;;;;;;;16.82;62.93;101702.78;5072021;28;20546;-63
2022/05/10 05:24:19;;;;;;;15.38;8.50;;;;;;;16.93;62.22;101709.34;5073462;28;20028;-62
2022/05/10 05:26:46;;;;;;;17.58;8.20;;;;;;;17.04;61.63;101706.91;5070261;28;20051;-62
2022/05/10 05:29:12;;;;;;;19.30;8.32;;;;;;;17.11;61.69;101702.06;5070852;28;20111;-63
2022/05/10 05:31:38;;;;;;;16.05;8.25;;;;;;;17.14;61.08;101705.41;5071213;28;20124;-63
2022/05/10 05:34:03;;;;;;;19.52;8.77;;;;;;;17.15;60.74;101704.47;5057417;28;20042;-63
2022/05/10 05:36:28;;;;;;;16.30;8.75;;;;;;;17.21;60.34;101700.56;5058112;28;20055;-63
2022/05/10 05:38:54;;;;;;;18.17;8.50;;;;;;;17.27;60.46;101713.59;5053276;28;20451;-62
2022/05/10 05:41:19;;;;;;;16.77;8.52;;;;;;;17.35;59.97;101703.31;5072280;28;20148;-62
2022/05/10 05:43:45;;;;;;;18.13;8.93;;;;;;;17.43;59.75;101699.28;5053829;28;20067;-62
2022/05/10 05:46:10;;;;;;;19.75;9.07;;;;;;;17.46;59.44;101701.78;5061985;28;20123;-62
2022/05/10 05:48:37;;;;;;;21.45;9.73;;;;;;;17.52;59.38;101690.72;5060731;28;20032;-62
2022/05/10 05:51:03;;;;;;;23.65;9.65;;;;;;;17.59;59.64;101683.16;5052636;28;20388;-61
2022/05/10 05:53:29;;;;;;;19.83;9.70;;;;;;;17.62;59.78;101683.84;5061085;28;20040;-62
2022/05/10 05:56:10;;;;;;;19.83;9.55;;;;;;;17.69;59.16;101684.31;5073388;28;20105;-62
2022/05/10 05:58:37;;;;;;;21.50;10.05;;;;;;;17.78;59.53;101683.75;5053793;28;20403;-61
2022/05/10 06:01:10;;;;;;;17.88;9.02;;;;;;;17.81;59.17;101678.22;5072331;28;20495;-61
2022/05/10 06:03:35;;;;;;;22.17;9.48;;;;;;;17.83;59.23;101673.59;5054078;28;20081;-62
2022/05/10 06:06:01;;;;;;;22.00;9.45;;;;;;;17.84;59.07;101669.13;5074198;28;20107;-62
2022/05/10 06:08:26;;;;;;;17.55;9.68;;;;;;;17.89;58.99;101666.13;5053704;28;20029;-62
2022/05/10 06:10:52;;;;;;;16.80;9.20;;;;;;;17.93;59.19;101665.88;5082654;28;20036;-62
2022/05/10 06:13:22;;;;;;;17.30;8.80;;;;;;;18.00;58.44;101663.66;5053460;28;20513;-62
2022/05/10 06:15:49;;;;;;;17.70;8.68;;;;;;;18.06;58.37;101665.97;5071394;28;20025;-62
2022/05/10 06:18:15;;;;;;;17.58;8.98;;;;;;;18.15;58.24;101678.78;5085593;28;20028;-62
2022/05/10 06:20:40;;;;;;;17.83;8.48;;;;;;;18.21;58.12;101672.19;5067170;28;20067;-61
2022/05/10 06:23:06;;;;;;;18.63;8.55;;;;;;;18.29;57.39;101667.19;5050718;28;20045;-61
2022/05/10 06:25:31;;;;;;;22.38;8.38;;;;;;;18.41;57.24;101668.19;5050643;28;20476;-63
2022/05/10 06:27:56;;;;;;;16.50;7.85;;;;;;;18.53;57.08;101654.94;5057180;28;20033;-62
2022/05/10 06:30:23;;;;;;;18.60;7.82;;;;;;;18.67;56.17;101650.41;5065310;28;20133;-62
2022/05/10 06:32:50;;;;;;;13.32;7.60;;;;;;;18.70;55.01;101649.34;5071563;28;20024;-62
2022/05/10 06:35:17;;;;;;;14.15;7.32;;;;;;;18.78;55.22;101646.16;5071475;28;20028;-62
2022/05/10 06:38:28;;;;;;;17.13;7.20;;;;;;;18.81;55.33;101637.88;5081209;28;20032;-62
2022/05/10 06:40:28;;;;;;;13.45;6.70;;;;;;;18.81;54.72;101638.75;5065000;28;20105;-62
2022/05/10 06:42:58;;;;;;;16.67;7.40;;;;;;;18.90;54.61;101640.00;5058514;28;20029;-62
2022/05/10 06:45:23;;;;;;;15.13;6.70;;;;;;;18.97;54.24;101632.38;5070766;28;20021;-62
2022/05/10 06:47:49;;;;;;;15.38;6.80;;;;;;;19.03;53.35;101629.28;5061704;28;20047;-62
2022/05/10 06:50:19;;;;;;;18.60;6.60;;;;;;;19.11;53.61;101626.94;5091276;28;20028;-61
2022/05/10 06:52:45;;;;;;;13.83;7.10;;;;;;;19.20;53.57;101625.44;5091396;28;20537;-60
2022/05/10 06:55:12;;;;;;;15.00;7.28;;;;;;;19.29;53.01;101624.78;5091618;28;20306;-61
2022/05/10 06:57:37;;;;;;;14.35;6.72;;;;;;;19.37;52.89;101623.41;5089898;28;20024;-60
2022/05/10 07:00:05;;;;;;;18.60;7.72;;;;;;;19.39;53.34;101616.97;5072923;28;20039;-60
2022/05/10 07:02:31;;;;;;;16.75;7.55;;;;;;;19.47;52.96;101621.78;5089969;28;20031;-61
2022/05/10 07:04:57;;;;;;;17.08;7.20;;;;;;;19.47;53.15;101622.66;5090587;28;20061;-62
2022/05/10 07:07:22;;;;;;;13.38;6.65;;;;;;;19.47;53.98;101617.28;5080415;28;20513;-61
2022/05/10 07:09:48;;;;;;;14.07;6.55;;;;;;;19.52;53.40;101626.84;5054408;28;20126;-62
2022/05/10 07:12:13;;;;;;;16.60;6.97;;;;;;;19.51;53.01;101622.44;5069079;28;20444;-62
2022/05/10 07:14:39;;;;;;;15.48;6.72;;;;;;;19.49;53.43;101633.31;5082650;28;20110;-60
2022/05/10 07:17:04;;;;;;;16.05;6.95;;;;;;;19.49;54.17;101604.59;5079940;28;20124;-62
2022/05/10 07:19:29;;;;;;;15.70;7.03;;;;;;;19.56;53.99;101601.50;5069916;28;20025;-61
2022/05/10 07:21:55;;;;;;;23.13;7.03;;;;;;;19.60;53.30;101606.53;5052893;28;20135;-62
2022/05/10 07:24:20;;;;;;;15.90;7.00;;;;;;;19.71;53.64;101607.59;5072217;28;20029;-61
2022/05/10 07:26:47;;;;;;;13.90;6.60;;;;;;;19.74;53.90;101608.22;5071589;28;20089;-61
2022/05/10 07:29:13;;;;;;;12.90;6.90;;;;;;;19.81;54.22;101611.34;5074538;28;20056;-62
2022/05/10 07:31:38;;;;;;;19.83;7.43;;;;;;;19.84;53.29;101616.53;5074783;28;20036;-62
2022/05/10 07:34:05;;;;;;;10.73;6.65;;;;;;;20.02;53.62;101617.03;5074778;28;20028;-61
2022/05/10 07:36:33;;;;;;;13.90;5.85;;;;;;;20.13;53.30;101611.72;5079183;28;20025;-62
2022/05/10 07:39:00;;;;;;;11.18;6.35;;;;;;;20.37;52.38;101615.41;5079927;28;20028;-62
2022/05/10 07:41:26;;;;;;;14.30;6.60;;;;;;;20.61;51.68;101602.81;5073452;28;20125;-61
2022/05/10 07:43:52;;;;;;;13.00;6.60;;;;;;;20.63;51.12;101594.63;5064007;28;20068;-61
2022/05/10 07:46:17;;;;;;;10.73;6.53;;;;;;;20.74;51.19;101599.22;5069961;28;20028;-62
2022/05/10 07:48:44;;;;;;;10.73;6.20;;;;;;;20.75;51.80;101592.88;5074391;28;20025;-62
2022/05/10 07:51:09;;;;;;;13.15;6.10;;;;;;;20.92;50.62;101595.13;5073322;28;20044;-62
2022/05/10 07:53:36;;;;;;;11.63;6.00;;;;;;;21.03;51.72;101591.59;5056489;28;20024;-61
2022/05/10 07:56:02;;;;;;;11.15;5.40;;;;;;;21.33;50.13;101583.94;5057709;28;20044;-62
2022/05/10 07:58:28;;;;;;;12.05;5.82;;;;;;;21.28;49.94;101589.69;5073727;28;20036;-62
2022/05/10 08:00:53;;;;;;;12.00;5.22;;;;;;;21.37;50.83;101580.88;5073937;28;20033;-63
2022/05/10 08:03:24;;;;;;;8.38;5.20;;;;;;;21.69;49.33;101593.66;5055950;28;20423;-61
2022/05/10 08:05:55;;;;;;;;;;;;;;;21.91;48.05;101590.06;5075064;28;20025;-62
2022/05/10 08:08:21;;;;;;;11.52;4.35;;;;;;;22.10;47.86;101596.69;5063105;28;19916;-62
2022/05/10 08:10:48;;;;;;;15.85;4.63;;;;;;;22.48;46.85;101591.81;5052659;28;20040;-62
2022/05/10 08:13:14;;;;;;;11.25;5.63;;;;;;;;;;5069016;28;20024;-62
2022/05/10 08:15:40;;;;;;;11.35;4.45;;;;;;;22.54;45.97;101583.19;5073219;28;20119;-62
2022/05/10 08:18:06;;;;;;;12.40;4.93;;;;;;;22.71;46.13;101592.56;5048782;28;20124;-62
2022/05/10 08:20:32;;;;;;;12.10;4.47;;;;;;;22.54;45.92;101578.66;5074053;28;20058;-63
2022/05/10 08:22:57;;;;;;;8.23;4.05;;;;;;;22.62;45.63;101586.09;5033332;28;20036;-62
2022/05/10 08:25:23;;;;;;;11.50;3.92;;;;;;;22.78;45.79;101572.16;5073602;28;20122;-62
2022/05/10 08:27:49;;;;;;;8.23;4.13;;;;;;;22.79;45.67;101578.41;5073097;28;20369;-62
2022/05/10 08:30:15;;;;;;;8.30;4.30;;;;;;;22.87;45.70;101578.63;5038067;28;20112;-62
2022/05/10 08:32:41;;;;;;;10.80;4.20;;;;;;;23.04;44.83;101583.44;5072561;28;20067;-61
2022/05/10 08:35:08;;;;;;;9.02;4.10;;;;;;;22.99;44.51;101585.69;5047113;28;20032;-62
2022/05/10 08:37:36;;;;;;;11.98;4.68;;;;;;;22.81;45.57;101592.66;5066135;28;20089;-62
2022/05/10 08:40:08;;;;;;;11.48;4.53;;;;;;;22.65;45.84;101579.59;5073278;28;20150;-62
2022/05/10 08:42:41;;;;;;;11.60;4.43;;;;;;;22.44;46.37;101582.25;5072224;28;20108;-63
2022/05/10 08:45:09;;;;;;;8.25;4.68;;;;;;;22.92;44.56;101582.63;5057513;28;20035;-63
2022/05/10 08:47:36;;;;;;;8.18;4.55;;;;;;;23.70;43.02;101587.63;5073291;28;20055;-61
2022/05/10 08:50:06;;;;;;;9.45;4.85;;;;;;;24.08;41.64;101589.75;5073492;28;20028;-62
2022/05/10 08:52:39;;;;;;;9.43;4.57;;;;;;;23.97;41.73;101588.88;5070920;28;20484;-62
2022/05/10 08:55:08;;;;;;;11.75;4.68;;;;;;;23.39;44.27;101598.47;5039966;28;20047;-62
2022/05/10 08:57:45;;;;;;;10.23;4.43;;;;;;;22.98;45.16;101604.69;5058168;28;20024;-62
2022/05/10 09:00:11;;;;;;;10.73;4.78;;;;;;;22.75;45.30;101596.75;5079924;28;20035;-62
2022/05/10 09:02:45;;;;;;;13.10;4.38;;;;;;;22.59;45.99;101613.34;5070194;28;20407;-62
2022/05/10 09:05:22;;;;;;;10.27;4.80;;;;;;;22.49;47.04;101593.53;5071732;28;20025;-63
2022/05/10 09:08:06;;;;;;;8.07;4.70;;;;;;;22.58;46.92;101606.25;5058834;28;20060;-64
2022/05/10 09:10:37;;;;;;;8.68;5.00;;;;;;;22.62;46.55;101604.16;5060945;28;20142;-63
2022/05/10 09:13:05;;;;;;;;;;;;;;;22.70;46.69;101609.78;5064709;28;20025;-62
2022/05/10 09:15:36;;;;;;;11.57;5.25;;;;;;;22.48;46.56;101592.69;5063603;28;19995;-60
2022/05/10 09:18:29;;;;;;;9.48;5.53;;;;;;;22.15;47.80;101609.78;5073054;28;20472;-62
2022/05/10 09:21:25;;;;;;;14.55;5.40;;;;;;;22.13;48.39;101588.31;5072161;28;20357;-62
2022/05/10 09:23:59;;;;;;;8.60;5.03;;;;;;;21.96;48.67;101605.03;5072667;28;20093;-61
2022/05/10 09:26:34;;;;;;;36.50;12.07;;;;;;;22.05;48.80;101599.75;5072646;28;20103;-61
2022/05/10 09:29:24;;;;;;;12.02;6.13;;;;;;;21.95;48.93;101596.09;5072468;28;21292;-61
2022/05/10 09:34:47;;;;;;;9.40;5.43;;;;;;;22.42;48.22;101604.00;5070047;28;20104;-61
2022/05/10 09:37:27;;;;;;;26.52;9.88;;;;;;;22.91;46.83;101599.81;5071771;28;20051;-61
2022/05/10 09:39:55;;;;;;;15.68;5.35;;;;;;;23.02;46.43;101592.66;5073060;28;20207;-62
2022/05/10 09:42:41;;;;;;;10.68;5.13;;;;;;;23.14;45.81;101594.28;5072802;28;20048;-62
2022/05/10 09:45:22;;;;;;;8.45;5.32;;;;;;;23.30;45.41;101596.56;5071405;28;20024;-62
2022/05/10 09:47:57;;;;;;;7.95;5.00;;;;;;;23.54;44.78;101604.38;5069710;28;20030;-62
2022/05/10 09:50:29;;;;;;;13.48;5.38;;;;;;;23.95;43.44;101595.44;5071081;28;20037;-62
2022/05/10 09:53:17;;;;;;;12.13;5.45;;;;;;;24.28;42.93;101596.06;5062388;28;20022;-63
2022/05/10 09:55:58;;;;;;;11.80;6.05;;;;;;;24.84;41.83;101591.81;5071037;28;20431;-62
2022/05/10 09:58:34;;;;;;;8.50;4.93;;;;;;;24.99;42.77;101600.38;5066391;28;20107;-62
2022/05/10 10:01:03;;;;;;;12.43;5.90;;;;;;;24.37;42.34;101597.91;5068532;28;20494;-62
2022/05/10 10:03:35;;;;;;;9.30;5.28;;;;;;;23.70;43.69;101598.44;5069321;28;20107;-64
2022/05/10 10:06:29;;;;;;;11.20;5.45;;;;;;;22.94;45.31;101593.31;5071546;28;20494;-61
2022/05/10 10:08:57;;;;;;;10.85;5.65;;;;;;;22.77;46.05;101610.09;5038198;28;20122;-62
2022/05/10 10:11:23;;;;;;;15.32;5.65;;;;;;;23.22;45.11;101604.47;5073968;28;20032;-61
2022/05/10 10:13:58;;;;;;;10.13;4.85;;;;;;;24.26;42.98;101615.16;5053945;28;20031;-61
2022/05/10 10:16:27;;;;;;;10.20;5.10;;;;;;;24.77;42.12;101610.53;5063823;28;20063;-63
2022/05/10 10:19:01;;;;;;;10.25;5.13;;;;;;;25.21;40.96;101614.59;5089162;28;20039;-62
2022/05/10 10:21:34;;;;;;;12.38;4.47;;;;;;;25.72;39.73;101617.84;5047940;28;20024;-62
2022/05/10 10:24:00;;;;;;;8.43;4.20;;;;;;;26.19;38.86;101617.81;5072979;28;20024;-62
2022/05/10 10:26:44;;;;;;;15.13;5.03;;;;;;;26.71;37.16;101597.25;5051043;28;20137;-61
2022/05/10 10:29:21;;;;;;;12.65;5.40;;;;;;;25.76;37.83;101611.16;5072691;28;20015;-62
2022/05/10 10:31:59;;;;;;;9.05;5.15;;;;;;;25.79;38.02;101610.84;5072558;28;20107;-62
2022/05/10 10:34:51;;;;;;;9.23;4.78;;;;;;;25.37;38.53;101606.72;5071624;28;20036;-62
2022/05/10 10:37:25;;;;;;;;;;;;;;;24.62;39.91;101612.75;5060232;28;20117;-60
2022/05/10 10:39:54;;;;;;;15.35;5.47;;;;;;;24.66;40.36;101616.06;5072063;28;20299;-62
2022/05/10 10:42:31;;;;;;;12.07;4.80;;;;;;;24.48;40.12;101619.44;5072719;28;20067;-62
2022/05/10 10:45:00;;;;;;;10.10;4.72;;;;;;;24.53;41.40;101608.19;5057737;28;20506;-61
2022/05/10 10:47:57;;;;;;;10.90;4.90;;;;;;;24.74;39.95;101608.06;5071705;28;20028;-63
2022/05/10 10:50:29;;;;;;;12.20;4.68;;;;;;;25.64;37.71;101605.03;5078116;28;20391;-62
2022/05/10 10:52:57;;;;;;;15.38;5.03;;;;;;;25.15;38.81;101614.16;5050787;28;20055;-62
2022/05/10 10:55:32;;;;;;;12.48;5.10;;;;;;;24.52;39.40;101595.66;5068554;28;20059;-62
2022/05/10 10:58:27;;;;;;;17.83;4.57;;;;;;;24.11;39.85;101590.34;5073092;28;20024;-62
2022/05/10 11:01:03;;;;;;;10.82;3.75;;;;;;;24.39;38.94;101593.22;5066972;28;20044;-62
2022/05/10 11:03:32;;;;;;;11.85;4.20;;;;;;;24.60;38.91;101598.50;5068737;28;20039;-62
2022/05/10 11:06:17;;;;;;;9.82;3.80;;;;;;;24.26;39.50;101608.88;5093049;28;20047;-62
2022/05/10 11:08:59;;;;;;;9.68;3.92;;;;;;;24.32;38.89;101601.06;5095017;28;20024;-61
2022/05/10 11:11:36;;;;;;;8.80;4.07;;;;;;;25.25;37.41;101613.28;5093540;28;20127;-62
2022/05/10 11:14:11;;;;;;;11.02;4.30;;;;;;;25.26;37.61;101609.59;5077199;28;20422;-64
2022/05/10 11:16:52;;;;;;;14.57;4.47;;;;;;;24.97;38.57;101607.78;5074653;28;20032;-61
2022/05/10 11:19:48;;;;;;;9.13;4.82;;;;;;;24.56;38.42;101605.19;5076803;28;20152;-62
2022/05/10 11:22:36;;;;;;;11.35;5.25;;;;;;;24.33;39.54;101591.94;5091056;28;20026;-62
2022/05/10 11:25:26;;;;;;;12.30;4.70;;;;;;;24.53;40.02;101594.66;5093777;28;20484;-61
2022/05/10 11:27:55;;;;;;;11.03;4.87;;;;;;;25.03;39.02;101577.41;5077153;28;20368;-63
2022/05/10 11:30:44;;;;;;;9.63;3.97;;;;;;;24.65;37.05;101587.28;5094405;28;20352;-62
2022/05/10 11:33:44;;;;;;;9.70;4.18;;;;;;;24.71;37.07;101600.25;5022439;28;20037;-63
2022/05/10 11:36:32;;;;;;;11.23;4.22;;;;;;;24.98;36.45;101602.22;5067691;28;20051;-62
2022/05/10 11:39:46;;;;;;;8.00;4.00;;;;;;;24.93;37.31;101596.38;5056975;28;20043;-63
2022/05/10 11:42:19;;;;;;;10.32;4.50;;;;;;;25.18;37.47;101597.63;5060765;28;20049;-62
2022/05/10 11:44:56;;;;;;;14.77;4.57;;;;;;;25.26;36.52;101601.47;5052966;28;20032;-62
2022/05/10 11:47:30;;;;;;;13.38;5.35;;;;;;;24.97;36.85;101597.78;5067486;28;20024;-62
2022/05/10 11:50:14;;;;;;;7.35;3.40;;;;;;;24.63;37.02;101581.97;5074392;28;20450;-63
2022/05/10 11:53:17;;;;;;;9.38;3.40;;;;;;;24.33;37.06;101575.69;5056049;28;20032;-63